sensor_id;sensor_type;location;lat;lon;timestamp;P1;durP1;ratioP1;P2;durP2;ratioP2
4806;SDS011;2417;52.482;13.432;2023-08-17T00:00:25;8.23;;;4.30;;
4806;SDS011;2417;52.482;13.432;2023-08-17T00:02:53;9.17;;;4.23;;
4806;SDS011;2417;52.482;13.432;2023-08-17T00:05:21;9.67;;;4.80;;
4806;SDS011;2417;52.482;13.432;2023-08-17T00:07:49;7.03;;;4.17;;
4806;SDS011;2417;52.482;13.432;2023-08-17T00:10:17;8.27;;;4.23;;
4806;SDS011;2417;52.482;13.432;2023-08-17T00:12:46;9.00;;;4.07;;
4806;SDS011;2417;52.482;13.432;2023-08-17T00:15:15;10.73;;;4.27;;
4806;SDS011;2417;52.482;13.432;2023-08-17T00:17:43;11.40;;;4.27;;
4806;SDS011;2417;52.482;13.432;2023-08-17T00:20:10;10.63;;;4.30;;
4806;SDS011;2417;52.482;13.432;2023-08-17T00:22:39;8.00;;;4.17;;
4806;SDS011;2417;52.482;13.432;2023-08-17T00:25:07;12.27;;;4.60;;
4806;SDS011;2417;52.482;13.432;2023-08-17T00:27:35;9.93;;;5.03;;
4806;SDS011;2417;52.482;13.432;2023-08-17T00:30:05;17.63;;;4.73;;
4806;SDS011;2417;52.482;13.432;2023-08-17T00:32:33;8.33;;;4.60;;
4806;SDS011;2417;52.482;13.432;2023-08-17T00:35:01;7.90;;;4.50;;
4806;SDS011;2417;52.482;13.432;2023-08-17T00:37:30;9.40;;;4.57;;
4806;SDS011;2417;52.482;13.432;2023-08-17T00:39:58;10.13;;;4.70;;
4806;SDS011;2417;52.482;13.432;2023-08-17T00:42:26;8.80;;;4.90;;
4806;SDS011;2417;52.482;13.432;2023-08-17T00:44:54;13.70;;;5.10;;
4806;SDS011;2417;52.482;13.432;2023-08-17T00:47:23;7.87;;;4.63;;
4806;SDS011;2417;52.482;13.432;2023-08-17T00:49:53;9.00;;;5.70;;
4806;SDS011;2417;52.482;13.432;2023-08-17T00:52:21;10.67;;;5.97;;
4806;SDS011;2417;52.482;13.432;2023-08-17T00:54:48;20.90;;;8.47;;
4806;SDS011;2417;52.482;13.432;2023-08-17T00:57:17;13.83;;;8.10;;
4806;SDS011;2417;52.482;13.432;2023-08-17T00:59:46;11.53;;;6.60;;
4806;SDS011;2417;52.482;13.432;2023-08-17T01:02:31;13.93;;;5.97;;
4806;SDS011;2417;52.482;13.432;2023-08-17T01:05:00;8.20;;;4.70;;
4806;SDS011;2417;52.482;13.432;2023-08-17T01:07:28;11.17;;;7.33;;
4806;SDS011;2417;52.482;13.432;2023-08-17T01:09:56;9.07;;;6.30;;
4806;SDS011;2417;52.482;13.432;2023-08-17T01:12:24;8.37;;;4.53;;
4806;SDS011;2417;52.482;13.432;2023-08-17T01:14:59;9.10;;;4.90;;
4806;SDS011;2417;52.482;13.432;2023-08-17T01:17:31;11.67;;;5.10;;
4806;SDS011;2417;52.482;13.432;2023-08-17T01:20:00;10.27;;;5.40;;
4806;SDS011;2417;52.482;13.432;2023-08-17T01:22:32;8.37;;;4.70;;
4806;SDS011;2417;52.482;13.432;2023-08-17T01:25:04;9.73;;;4.80;;
4806;SDS011;2417;52.482;13.432;2023-08-17T01:27:33;8.83;;;5.03;;
4806;SDS011;2417;52.482;13.432;2023-08-17T01:30:04;8.73;;;5.30;;
4806;SDS011;2417;52.482;13.432;2023-08-17T01:32:33;12.10;;;6.73;;
4806;SDS011;2417;52.482;13.432;2023-08-17T01:35:08;13.17;;;5.10;;
4806;SDS011;2417;52.482;13.432;2023-08-17T01:37:37;8.73;;;5.20;;
4806;SDS011;2417;52.482;13.432;2023-08-17T01:40:07;8.50;;;4.93;;
4806;SDS011;2417;52.482;13.432;2023-08-17T01:42:36;11.53;;;4.70;;
4806;SDS011;2417;52.482;13.432;2023-08-17T01:45:04;10.03;;;5.20;;
4806;SDS011;2417;52.482;13.432;2023-08-17T01:47:31;12.87;;;5.20;;
4806;SDS011;2417;52.482;13.432;2023-08-17T01:49:59;7.57;;;4.70;;
4806;SDS011;2417;52.482;13.432;2023-08-17T01:52:27;7.93;;;5.03;;
4806;SDS011;2417;52.482;13.432;2023-08-17T01:54:55;9.93;;;5.00;;
4806;SDS011;2417;52.482;13.432;2023-08-17T01:57:24;7.80;;;4.43;;
4806;SDS011;2417;52.482;13.432;2023-08-17T01:59:53;11.70;;;5.37;;
4806;SDS011;2417;52.482;13.432;2023-08-17T02:02:21;8.63;;;4.57;;
4806;SDS011;2417;52.482;13.432;2023-08-17T02:04:49;10.50;;;4.60;;
4806;SDS011;2417;52.482;13.432;2023-08-17T02:07:17;7.17;;;4.50;;
4806;SDS011;2417;52.482;13.432;2023-08-17T02:09:48;10.13;;;4.50;;
4806;SDS011;2417;52.482;13.432;2023-08-17T02:12:16;12.80;;;4.80;;
4806;SDS011;2417;52.482;13.432;2023-08-17T02:14:45;13.23;;;5.00;;
4806;SDS011;2417;52.482;13.432;2023-08-17T02:17:13;13.30;;;4.80;;
4806;SDS011;2417;52.482;13.432;2023-08-17T02:19:43;9.73;;;4.57;;
4806;SDS011;2417;52.482;13.432;2023-08-17T02:22:11;11.83;;;4.80;;
4806;SDS011;2417;52.482;13.432;2023-08-17T02:24:39;8.33;;;4.10;;
4806;SDS011;2417;52.482;13.432;2023-08-17T02:27:08;8.37;;;4.47;;
4806;SDS011;2417;52.482;13.432;2023-08-17T02:29:36;9.77;;;5.00;;
4806;SDS011;2417;52.482;13.432;2023-08-17T02:32:05;7.80;;;4.70;;
4806;SDS011;2417;52.482;13.432;2023-08-17T02:34:33;12.93;;;5.13;;
4806;SDS011;2417;52.482;13.432;2023-08-17T02:37:01;11.77;;;5.00;;
4806;SDS011;2417;52.482;13.432;2023-08-17T02:39:29;11.63;;;4.97;;
4806;SDS011;2417;52.482;13.432;2023-08-17T02:41:57;11.10;;;4.93;;
4806;SDS011;2417;52.482;13.432;2023-08-17T02:44:25;9.20;;;4.87;;
4806;SDS011;2417;52.482;13.432;2023-08-17T02:46:54;8.10;;;4.63;;
4806;SDS011;2417;52.482;13.432;2023-08-17T02:49:24;9.33;;;4.60;;
4806;SDS011;2417;52.482;13.432;2023-08-17T02:51:52;7.87;;;4.60;;
4806;SDS011;2417;52.482;13.432;2023-08-17T02:54:20;6.70;;;4.27;;
4806;SDS011;2417;52.482;13.432;2023-08-17T02:56:48;7.00;;;4.20;;
4806;SDS011;2417;52.482;13.432;2023-08-17T02:59:17;8.97;;;4.73;;
4806;SDS011;2417;52.482;13.432;2023-08-17T03:01:45;13.57;;;4.70;;
4806;SDS011;2417;52.482;13.432;2023-08-17T03:04:13;9.20;;;4.20;;
4806;SDS011;2417;52.482;13.432;2023-08-17T03:06:43;9.77;;;4.70;;
4806;SDS011;2417;52.482;13.432;2023-08-17T03:09:11;11.10;;;4.90;;
4806;SDS011;2417;52.482;13.432;2023-08-17T03:11:38;11.70;;;4.93;;
4806;SDS011;2417;52.482;13.432;2023-08-17T03:14:06;7.77;;;4.70;;
4806;SDS011;2417;52.482;13.432;2023-08-17T03:16:34;14.17;;;5.23;;
4806;SDS011;2417;52.482;13.432;2023-08-17T03:19:03;6.30;;;4.50;;
4806;SDS011;2417;52.482;13.432;2023-08-17T03:21:32;9.50;;;4.60;;
4806;SDS011;2417;52.482;13.432;2023-08-17T03:24:01;9.97;;;4.67;;
4806;SDS011;2417;52.482;13.432;2023-08-17T03:26:30;7.30;;;3.87;;
4806;SDS011;2417;52.482;13.432;2023-08-17T03:28:58;7.30;;;4.17;;
4806;SDS011;2417;52.482;13.432;2023-08-17T03:31:26;7.97;;;4.77;;
4806;SDS011;2417;52.482;13.432;2023-08-17T03:33:55;7.53;;;4.00;;
4806;SDS011;2417;52.482;13.432;2023-08-17T03:36:23;9.93;;;4.63;;
4806;SDS011;2417;52.482;13.432;2023-08-17T03:38:52;7.63;;;4.07;;
4806;SDS011;2417;52.482;13.432;2023-08-17T03:41:22;6.40;;;4.37;;
4806;SDS011;2417;52.482;13.432;2023-08-17T03:43:51;8.33;;;4.37;;
4806;SDS011;2417;52.482;13.432;2023-08-17T03:46:18;11.13;;;4.37;;
4806;SDS011;2417;52.482;13.432;2023-08-17T03:48:46;7.67;;;3.97;;
4806;SDS011;2417;52.482;13.432;2023-08-17T03:51:15;7.40;;;4.50;;
4806;SDS011;2417;52.482;13.432;2023-08-17T03:53:43;7.70;;;3.87;;
4806;SDS011;2417;52.482;13.432;2023-08-17T03:56:11;10.07;;;4.07;;
4806;SDS011;2417;52.482;13.432;2023-08-17T03:58:42;5.90;;;3.67;;
4806;SDS011;2417;52.482;13.432;2023-08-17T04:01:10;8.13;;;4.30;;
4806;SDS011;2417;52.482;13.432;2023-08-17T04:03:41;7.50;;;3.73;;
4806;SDS011;2417;52.482;13.432;2023-08-17T04:06:10;6.70;;;3.60;;
4806;SDS011;2417;52.482;13.432;2023-08-17T04:08:38;5.77;;;3.90;;
4806;SDS011;2417;52.482;13.432;2023-08-17T04:11:06;9.63;;;4.10;;
4806;SDS011;2417;52.482;13.432;2023-08-17T04:13:34;12.67;;;3.90;;
4806;SDS011;2417;52.482;13.432;2023-08-17T04:16:03;6.33;;;3.50;;
4806;SDS011;2417;52.482;13.432;2023-08-17T04:18:31;8.17;;;4.23;;
4806;SDS011;2417;52.482;13.432;2023-08-17T04:20:59;7.30;;;3.50;;
4806;SDS011;2417;52.482;13.432;2023-08-17T04:23:27;8.63;;;3.70;;
4806;SDS011;2417;52.482;13.432;2023-08-17T04:25:55;9.03;;;3.67;;
4806;SDS011;2417;52.482;13.432;2023-08-17T04:28:23;7.50;;;3.40;;
4806;SDS011;2417;52.482;13.432;2023-08-17T04:30:52;8.00;;;3.17;;
4806;SDS011;2417;52.482;13.432;2023-08-17T04:33:23;5.70;;;3.20;;
4806;SDS011;2417;52.482;13.432;2023-08-17T04:35:51;13.53;;;4.17;;
4806;SDS011;2417;52.482;13.432;2023-08-17T04:38:19;7.53;;;3.67;;
4806;SDS011;2417;52.482;13.432;2023-08-17T04:40:47;10.40;;;3.93;;
4806;SDS011;2417;52.482;13.432;2023-08-17T04:43:15;12.40;;;3.30;;
4806;SDS011;2417;52.482;13.432;2023-08-17T04:45:43;8.90;;;3.43;;
4806;SDS011;2417;52.482;13.432;2023-08-17T04:48:15;6.37;;;3.50;;
4806;SDS011;2417;52.482;13.432;2023-08-17T04:50:46;6.47;;;3.37;;
4806;SDS011;2417;52.482;13.432;2023-08-17T04:53:14;7.30;;;3.60;;
4806;SDS011;2417;52.482;13.432;2023-08-17T04:55:42;6.67;;;3.70;;
4806;SDS011;2417;52.482;13.432;2023-08-17T04:58:10;6.00;;;3.30;;
4806;SDS011;2417;52.482;13.432;2023-08-17T05:00:39;7.13;;;3.40;;
4806;SDS011;2417;52.482;13.432;2023-08-17T05:03:07;6.13;;;3.07;;
4806;SDS011;2417;52.482;13.432;2023-08-17T05:05:47;7.50;;;3.30;;
4806;SDS011;2417;52.482;13.432;2023-08-17T05:08:15;7.47;;;3.20;;
4806;SDS011;2417;52.482;13.432;2023-08-17T05:10:43;9.10;;;3.13;;
4806;SDS011;2417;52.482;13.432;2023-08-17T05:13:11;6.40;;;3.70;;
4806;SDS011;2417;52.482;13.432;2023-08-17T05:15:39;10.73;;;4.73;;
4806;SDS011;2417;52.482;13.432;2023-08-17T05:18:09;7.60;;;3.83;;
4806;SDS011;2417;52.482;13.432;2023-08-17T05:20:37;7.10;;;3.57;;
4806;SDS011;2417;52.482;13.432;2023-08-17T05:23:07;6.23;;;3.50;;
4806;SDS011;2417;52.482;13.432;2023-08-17T05:25:35;6.50;;;3.70;;
4806;SDS011;2417;52.482;13.432;2023-08-17T05:28:03;9.43;;;3.80;;
4806;SDS011;2417;52.482;13.432;2023-08-17T05:30:31;5.30;;;3.40;;
4806;SDS011;2417;52.482;13.432;2023-08-17T05:33:00;5.10;;;2.87;;
4806;SDS011;2417;52.482;13.432;2023-08-17T05:35:28;9.40;;;3.40;;
4806;SDS011;2417;52.482;13.432;2023-08-17T05:37:57;8.47;;;3.40;;
4806;SDS011;2417;52.482;13.432;2023-08-17T05:40:26;5.77;;;3.30;;
4806;SDS011;2417;52.482;13.432;2023-08-17T05:42:54;9.87;;;3.17;;
4806;SDS011;2417;52.482;13.432;2023-08-17T05:45:22;6.90;;;3.10;;
4806;SDS011;2417;52.482;13.432;2023-08-17T05:47:51;12.60;;;3.40;;
4806;SDS011;2417;52.482;13.432;2023-08-17T05:50:19;9.67;;;3.17;;
4806;SDS011;2417;52.482;13.432;2023-08-17T05:52:47;6.43;;;3.20;;
4806;SDS011;2417;52.482;13.432;2023-08-17T05:55:15;6.53;;;3.27;;
4806;SDS011;2417;52.482;13.432;2023-08-17T05:57:44;5.80;;;3.33;;
4806;SDS011;2417;52.482;13.432;2023-08-17T06:00:13;5.63;;;3.07;;
4806;SDS011;2417;52.482;13.432;2023-08-17T06:02:42;7.03;;;3.20;;
4806;SDS011;2417;52.482;13.432;2023-08-17T06:05:10;9.53;;;3.67;;
4806;SDS011;2417;52.482;13.432;2023-08-17T06:07:38;18.30;;;3.27;;
4806;SDS011;2417;52.482;13.432;2023-08-17T06:10:07;9.60;;;3.50;;
4806;SDS011;2417;52.482;13.432;2023-08-17T06:12:36;23.07;;;3.23;;
4806;SDS011;2417;52.482;13.432;2023-08-17T06:15:06;9.30;;;3.70;;
4806;SDS011;2417;52.482;13.432;2023-08-17T06:17:35;10.30;;;3.70;;
4806;SDS011;2417;52.482;13.432;2023-08-17T06:20:03;7.33;;;3.47;;
4806;SDS011;2417;52.482;13.432;2023-08-17T06:22:31;8.93;;;3.60;;
4806;SDS011;2417;52.482;13.432;2023-08-17T06:24:59;9.03;;;3.63;;
4806;SDS011;2417;52.482;13.432;2023-08-17T06:27:27;12.43;;;3.43;;
4806;SDS011;2417;52.482;13.432;2023-08-17T06:29:55;6.07;;;3.47;;
4806;SDS011;2417;52.482;13.432;2023-08-17T06:32:24;7.20;;;3.90;;
4806;SDS011;2417;52.482;13.432;2023-08-17T06:34:52;16.03;;;3.60;;
4806;SDS011;2417;52.482;13.432;2023-08-17T06:37:21;11.40;;;3.77;;
4806;SDS011;2417;52.482;13.432;2023-08-17T06:39:49;6.03;;;3.13;;
4806;SDS011;2417;52.482;13.432;2023-08-17T06:42:16;7.07;;;3.57;;
4806;SDS011;2417;52.482;13.432;2023-08-17T06:44:46;10.53;;;3.40;;
4806;SDS011;2417;52.482;13.432;2023-08-17T06:47:14;9.30;;;4.20;;
4806;SDS011;2417;52.482;13.432;2023-08-17T06:49:43;9.90;;;4.10;;
4806;SDS011;2417;52.482;13.432;2023-08-17T06:52:11;10.50;;;3.87;;
4806;SDS011;2417;52.482;13.432;2023-08-17T06:54:39;8.70;;;3.20;;
4806;SDS011;2417;52.482;13.432;2023-08-17T06:57:07;10.40;;;4.27;;
4806;SDS011;2417;52.482;13.432;2023-08-17T06:59:35;7.30;;;3.87;;
4806;SDS011;2417;52.482;13.432;2023-08-17T07:02:03;8.70;;;4.87;;
4806;SDS011;2417;52.482;13.432;2023-08-17T07:04:32;11.60;;;4.77;;
4806;SDS011;2417;52.482;13.432;2023-08-17T07:07:01;12.47;;;4.50;;
4806;SDS011;2417;52.482;13.432;2023-08-17T07:09:30;7.53;;;3.50;;
4806;SDS011;2417;52.482;13.432;2023-08-17T07:11:58;6.67;;;3.17;;
4806;SDS011;2417;52.482;13.432;2023-08-17T07:14:26;8.60;;;4.00;;
4806;SDS011;2417;52.482;13.432;2023-08-17T07:16:54;8.20;;;3.83;;
4806;SDS011;2417;52.482;13.432;2023-08-17T07:19:22;9.43;;;4.03;;
4806;SDS011;2417;52.482;13.432;2023-08-17T07:22:12;6.37;;;3.30;;
4806;SDS011;2417;52.482;13.432;2023-08-17T07:24:40;10.60;;;4.10;;
4806;SDS011;2417;52.482;13.432;2023-08-17T07:27:08;8.00;;;3.80;;
4806;SDS011;2417;52.482;13.432;2023-08-17T07:29:36;5.97;;;3.40;;
4806;SDS011;2417;52.482;13.432;2023-08-17T07:32:04;12.23;;;3.80;;
4806;SDS011;2417;52.482;13.432;2023-08-17T07:34:32;10.03;;;3.97;;
4806;SDS011;2417;52.482;13.432;2023-08-17T07:37:00;7.63;;;3.50;;
4806;SDS011;2417;52.482;13.432;2023-08-17T07:39:29;10.30;;;3.53;;
4806;SDS011;2417;52.482;13.432;2023-08-17T07:41:58;7.53;;;3.73;;
4806;SDS011;2417;52.482;13.432;2023-08-17T07:44:25;9.17;;;4.57;;
4806;SDS011;2417;52.482;13.432;2023-08-17T07:46:54;6.90;;;3.73;;
4806;SDS011;2417;52.482;13.432;2023-08-17T07:49:22;10.03;;;3.77;;
4806;SDS011;2417;52.482;13.432;2023-08-17T07:51:58;5.30;;;3.30;;
4806;SDS011;2417;52.482;13.432;2023-08-17T07:54:26;10.10;;;4.20;;
4806;SDS011;2417;52.482;13.432;2023-08-17T07:56:55;6.77;;;3.50;;
4806;SDS011;2417;52.482;13.432;2023-08-17T07:59:23;5.93;;;3.33;;
4806;SDS011;2417;52.482;13.432;2023-08-17T08:01:52;9.30;;;3.90;;
4806;SDS011;2417;52.482;13.432;2023-08-17T08:04:19;8.30;;;4.13;;
4806;SDS011;2417;52.482;13.432;2023-08-17T08:06:48;10.10;;;3.53;;
4806;SDS011;2417;52.482;13.432;2023-08-17T08:09:15;7.80;;;3.97;;
4806;SDS011;2417;52.482;13.432;2023-08-17T08:11:44;5.80;;;3.73;;
4806;SDS011;2417;52.482;13.432;2023-08-17T08:14:13;7.37;;;4.30;;
4806;SDS011;2417;52.482;13.432;2023-08-17T08:16:41;9.60;;;4.67;;
4806;SDS011;2417;52.482;13.432;2023-08-17T08:19:09;7.37;;;3.77;;
4806;SDS011;2417;52.482;13.432;2023-08-17T08:21:37;11.20;;;4.17;;
4806;SDS011;2417;52.482;13.432;2023-08-17T08:24:05;6.43;;;3.10;;
4806;SDS011;2417;52.482;13.432;2023-08-17T08:26:48;8.43;;;3.67;;
4806;SDS011;2417;52.482;13.432;2023-08-17T08:29:18;7.70;;;3.80;;
4806;SDS011;2417;52.482;13.432;2023-08-17T08:31:46;9.00;;;3.67;;
4806;SDS011;2417;52.482;13.432;2023-08-17T08:34:14;8.20;;;3.63;;
4806;SDS011;2417;52.482;13.432;2023-08-17T08:36:42;6.50;;;3.50;;
4806;SDS011;2417;52.482;13.432;2023-08-17T08:39:10;6.47;;;3.93;;
4806;SDS011;2417;52.482;13.432;2023-08-17T08:41:39;8.63;;;3.70;;
4806;SDS011;2417;52.482;13.432;2023-08-17T08:44:07;17.90;;;4.60;;
4806;SDS011;2417;52.482;13.432;2023-08-17T08:46:36;10.63;;;4.20;;
4806;SDS011;2417;52.482;13.432;2023-08-17T08:49:06;10.83;;;4.43;;
4806;SDS011;2417;52.482;13.432;2023-08-17T08:51:37;8.13;;;4.80;;
4806;SDS011;2417;52.482;13.432;2023-08-17T08:54:07;8.20;;;4.57;;
4806;SDS011;2417;52.482;13.432;2023-08-17T08:56:37;9.07;;;5.07;;
4806;SDS011;2417;52.482;13.432;2023-08-17T08:59:06;11.63;;;5.60;;
4806;SDS011;2417;52.482;13.432;2023-08-17T09:01:36;12.20;;;4.60;;
4806;SDS011;2417;52.482;13.432;2023-08-17T09:04:06;15.20;;;4.80;;
4806;SDS011;2417;52.482;13.432;2023-08-17T09:06:34;9.57;;;5.00;;
4806;SDS011;2417;52.482;13.432;2023-08-17T09:09:04;8.27;;;5.13;;
4806;SDS011;2417;52.482;13.432;2023-08-17T09:11:33;10.40;;;5.00;;
4806;SDS011;2417;52.482;13.432;2023-08-17T09:14:01;16.40;;;5.90;;
4806;SDS011;2417;52.482;13.432;2023-08-17T09:16:31;12.07;;;5.23;;
4806;SDS011;2417;52.482;13.432;2023-08-17T09:19:00;12.77;;;6.67;;
4806;SDS011;2417;52.482;13.432;2023-08-17T09:21:32;12.20;;;6.17;;
4806;SDS011;2417;52.482;13.432;2023-08-17T09:24:02;8.43;;;5.43;;
4806;SDS011;2417;52.482;13.432;2023-08-17T09:26:30;8.10;;;4.50;;
4806;SDS011;2417;52.482;13.432;2023-08-17T09:28:59;8.70;;;4.80;;
4806;SDS011;2417;52.482;13.432;2023-08-17T09:31:30;16.10;;;5.03;;
4806;SDS011;2417;52.482;13.432;2023-08-17T09:34:01;9.30;;;5.20;;
4806;SDS011;2417;52.482;13.432;2023-08-17T09:36:35;10.10;;;5.27;;
4806;SDS011;2417;52.482;13.432;2023-08-17T09:39:03;12.03;;;5.87;;
4806;SDS011;2417;52.482;13.432;2023-08-17T09:41:31;10.40;;;4.80;;
4806;SDS011;2417;52.482;13.432;2023-08-17T09:44:09;14.10;;;6.47;;
4806;SDS011;2417;52.482;13.432;2023-08-17T09:46:37;10.00;;;6.30;;
4806;SDS011;2417;52.482;13.432;2023-08-17T09:49:06;13.30;;;5.00;;
4806;SDS011;2417;52.482;13.432;2023-08-17T09:51:35;8.87;;;5.30;;
4806;SDS011;2417;52.482;13.432;2023-08-17T09:54:09;9.70;;;4.90;;
4806;SDS011;2417;52.482;13.432;2023-08-17T09:56:45;16.77;;;4.50;;
4806;SDS011;2417;52.482;13.432;2023-08-17T09:59:12;7.47;;;4.97;;
4806;SDS011;2417;52.482;13.432;2023-08-17T10:01:41;8.40;;;4.97;;
4806;SDS011;2417;52.482;13.432;2023-08-17T10:04:11;8.10;;;4.37;;
4806;SDS011;2417;52.482;13.432;2023-08-17T10:06:40;10.07;;;4.43;;
4806;SDS011;2417;52.482;13.432;2023-08-17T10:09:10;10.53;;;6.07;;
4806;SDS011;2417;52.482;13.432;2023-08-17T10:11:40;17.57;;;5.47;;
4806;SDS011;2417;52.482;13.432;2023-08-17T10:14:11;9.37;;;4.70;;
4806;SDS011;2417;52.482;13.432;2023-08-17T10:16:43;8.00;;;4.70;;
4806;SDS011;2417;52.482;13.432;2023-08-17T10:19:17;13.57;;;5.57;;
4806;SDS011;2417;52.482;13.432;2023-08-17T10:21:46;11.70;;;5.27;;
4806;SDS011;2417;52.482;13.432;2023-08-17T10:24:16;8.93;;;4.90;;
4806;SDS011;2417;52.482;13.432;2023-08-17T10:26:44;10.17;;;5.53;;
4806;SDS011;2417;52.482;13.432;2023-08-17T10:29:14;9.60;;;5.47;;
4806;SDS011;2417;52.482;13.432;2023-08-17T10:31:44;11.60;;;6.07;;
4806;SDS011;2417;52.482;13.432;2023-08-17T10:34:13;10.00;;;4.80;;
4806;SDS011;2417;52.482;13.432;2023-08-17T10:36:41;9.60;;;6.47;;
4806;SDS011;2417;52.482;13.432;2023-08-17T10:39:22;11.67;;;6.00;;
4806;SDS011;2417;52.482;13.432;2023-08-17T10:41:58;9.57;;;5.30;;
4806;SDS011;2417;52.482;13.432;2023-08-17T10:44:40;9.50;;;5.60;;
4806;SDS011;2417;52.482;13.432;2023-08-17T10:47:21;11.57;;;6.07;;
4806;SDS011;2417;52.482;13.432;2023-08-17T10:49:51;13.23;;;5.40;;
4806;SDS011;2417;52.482;13.432;2023-08-17T10:52:25;7.77;;;5.50;;
4806;SDS011;2417;52.482;13.432;2023-08-17T10:54:54;6.77;;;5.03;;
4806;SDS011;2417;52.482;13.432;2023-08-17T10:57:32;6.70;;;4.40;;
4806;SDS011;2417;52.482;13.432;2023-08-17T11:00:13;15.13;;;6.13;;
4806;SDS011;2417;52.482;13.432;2023-08-17T11:02:45;9.10;;;5.43;;
4806;SDS011;2417;52.482;13.432;2023-08-17T11:05:21;7.80;;;5.10;;
4806;SDS011;2417;52.482;13.432;2023-08-17T11:08:01;9.10;;;5.13;;
4806;SDS011;2417;52.482;13.432;2023-08-17T11:10:30;11.97;;;5.77;;
4806;SDS011;2417;52.482;13.432;2023-08-17T11:12:58;8.90;;;5.30;;
4806;SDS011;2417;52.482;13.432;2023-08-17T11:15:37;11.00;;;6.57;;
4806;SDS011;2417;52.482;13.432;2023-08-17T11:18:06;6.93;;;4.53;;
4806;SDS011;2417;52.482;13.432;2023-08-17T11:20:38;11.60;;;6.10;;
4806;SDS011;2417;52.482;13.432;2023-08-17T11:23:06;8.43;;;4.67;;
4806;SDS011;2417;52.482;13.432;2023-08-17T11:25:35;11.20;;;5.13;;
4806;SDS011;2417;52.482;13.432;2023-08-17T11:28:05;14.40;;;5.80;;
4806;SDS011;2417;52.482;13.432;2023-08-17T11:30:35;11.50;;;6.87;;
4806;SDS011;2417;52.482;13.432;2023-08-17T11:33:05;9.43;;;7.03;;
4806;SDS011;2417;52.482;13.432;2023-08-17T11:35:34;8.20;;;5.73;;
4806;SDS011;2417;52.482;13.432;2023-08-17T11:38:03;10.13;;;6.17;;
4806;SDS011;2417;52.482;13.432;2023-08-17T11:40:34;15.43;;;6.13;;
4806;SDS011;2417;52.482;13.432;2023-08-17T11:43:03;10.17;;;5.37;;
4806;SDS011;2417;52.482;13.432;2023-08-17T11:45:31;10.63;;;6.40;;
4806;SDS011;2417;52.482;13.432;2023-08-17T11:47:59;6.77;;;5.20;;
4806;SDS011;2417;52.482;13.432;2023-08-17T11:50:28;8.30;;;5.13;;
4806;SDS011;2417;52.482;13.432;2023-08-17T11:52:58;12.23;;;5.90;;
4806;SDS011;2417;52.482;13.432;2023-08-17T11:55:27;10.77;;;5.80;;
4806;SDS011;2417;52.482;13.432;2023-08-17T11:57:56;10.33;;;5.80;;
4806;SDS011;2417;52.482;13.432;2023-08-17T12:00:25;9.80;;;5.90;;
4806;SDS011;2417;52.482;13.432;2023-08-17T12:02:53;9.10;;;5.90;;
4806;SDS011;2417;52.482;13.432;2023-08-17T12:05:21;8.73;;;5.20;;
4806;SDS011;2417;52.482;13.432;2023-08-17T12:07:52;12.00;;;6.50;;
4806;SDS011;2417;52.482;13.432;2023-08-17T12:10:20;8.43;;;5.40;;
4806;SDS011;2417;52.482;13.432;2023-08-17T12:12:50;8.93;;;5.13;;
4806;SDS011;2417;52.482;13.432;2023-08-17T12:15:18;7.87;;;5.13;;
4806;SDS011;2417;52.482;13.432;2023-08-17T12:17:46;7.47;;;5.40;;
4806;SDS011;2417;52.482;13.432;2023-08-17T12:20:15;12.27;;;7.20;;
4806;SDS011;2417;52.482;13.432;2023-08-17T12:22:44;8.37;;;5.37;;
4806;SDS011;2417;52.482;13.432;2023-08-17T12:25:12;7.03;;;5.00;;
4806;SDS011;2417;52.482;13.432;2023-08-17T12:27:41;7.53;;;4.70;;
4806;SDS011;2417;52.482;13.432;2023-08-17T12:30:25;6.63;;;5.30;;
4806;SDS011;2417;52.482;13.432;2023-08-17T12:32:53;6.97;;;4.70;;
4806;SDS011;2417;52.482;13.432;2023-08-17T12:35:24;14.63;;;5.37;;
4806;SDS011;2417;52.482;13.432;2023-08-17T12:37:52;7.50;;;5.47;;
4806;SDS011;2417;52.482;13.432;2023-08-17T12:40:21;11.23;;;8.30;;
4806;SDS011;2417;52.482;13.432;2023-08-17T12:42:49;11.17;;;7.90;;
4806;SDS011;2417;52.482;13.432;2023-08-17T12:45:18;20.43;;;8.70;;
4806;SDS011;2417;52.482;13.432;2023-08-17T12:47:46;9.40;;;6.10;;
4806;SDS011;2417;52.482;13.432;2023-08-17T12:50:14;8.70;;;6.43;;
4806;SDS011;2417;52.482;13.432;2023-08-17T12:52:44;10.93;;;6.77;;
4806;SDS011;2417;52.482;13.432;2023-08-17T12:55:13;8.33;;;6.10;;
4806;SDS011;2417;52.482;13.432;2023-08-17T12:57:41;9.37;;;6.17;;
4806;SDS011;2417;52.482;13.432;2023-08-17T13:00:09;11.40;;;6.37;;
4806;SDS011;2417;52.482;13.432;2023-08-17T13:02:39;7.50;;;6.10;;
4806;SDS011;2417;52.482;13.432;2023-08-17T13:05:07;7.57;;;5.40;;
4806;SDS011;2417;52.482;13.432;2023-08-17T13:07:35;9.00;;;6.00;;
4806;SDS011;2417;52.482;13.432;2023-08-17T13:10:03;10.07;;;6.30;;
4806;SDS011;2417;52.482;13.432;2023-08-17T13:12:31;8.80;;;5.70;;
4806;SDS011;2417;52.482;13.432;2023-08-17T13:14:59;7.53;;;5.17;;
4806;SDS011;2417;52.482;13.432;2023-08-17T13:17:27;6.87;;;5.10;;
4806;SDS011;2417;52.482;13.432;2023-08-17T13:19:56;8.50;;;6.20;;
4806;SDS011;2417;52.482;13.432;2023-08-17T13:22:24;7.80;;;5.73;;
4806;SDS011;2417;52.482;13.432;2023-08-17T13:24:55;8.27;;;6.13;;
4806;SDS011;2417;52.482;13.432;2023-08-17T13:27:23;10.63;;;6.40;;
4806;SDS011;2417;52.482;13.432;2023-08-17T13:29:51;9.20;;;6.80;;
4806;SDS011;2417;52.482;13.432;2023-08-17T13:32:19;11.37;;;7.20;;
4806;SDS011;2417;52.482;13.432;2023-08-17T13:34:47;11.00;;;6.20;;
4806;SDS011;2417;52.482;13.432;2023-08-17T13:37:16;15.07;;;9.10;;
4806;SDS011;2417;52.482;13.432;2023-08-17T13:39:45;9.47;;;7.00;;
4806;SDS011;2417;52.482;13.432;2023-08-17T13:42:13;8.07;;;5.30;;
4806;SDS011;2417;52.482;13.432;2023-08-17T13:44:41;9.53;;;5.73;;
4806;SDS011;2417;52.482;13.432;2023-08-17T13:47:09;8.20;;;5.90;;
4806;SDS011;2417;52.482;13.432;2023-08-17T13:49:37;8.10;;;6.13;;
4806;SDS011;2417;52.482;13.432;2023-08-17T13:52:05;9.20;;;6.40;;
4806;SDS011;2417;52.482;13.432;2023-08-17T13:54:35;10.90;;;5.93;;
4806;SDS011;2417;52.482;13.432;2023-08-17T13:57:03;9.30;;;6.17;;
4806;SDS011;2417;52.482;13.432;2023-08-17T13:59:31;9.47;;;6.20;;
4806;SDS011;2417;52.482;13.432;2023-08-17T14:01:59;11.73;;;7.50;;
4806;SDS011;2417;52.482;13.432;2023-08-17T14:04:27;11.50;;;7.20;;
4806;SDS011;2417;52.482;13.432;2023-08-17T14:06:55;11.50;;;7.43;;
4806;SDS011;2417;52.482;13.432;2023-08-17T14:09:23;7.97;;;5.50;;
4806;SDS011;2417;52.482;13.432;2023-08-17T14:11:53;9.70;;;6.87;;
4806;SDS011;2417;52.482;13.432;2023-08-17T14:14:21;12.37;;;7.10;;
4806;SDS011;2417;52.482;13.432;2023-08-17T14:16:48;9.53;;;5.80;;
4806;SDS011;2417;52.482;13.432;2023-08-17T14:19:17;11.27;;;6.50;;
4806;SDS011;2417;52.482;13.432;2023-08-17T14:21:44;8.23;;;5.50;;
4806;SDS011;2417;52.482;13.432;2023-08-17T14:24:12;9.20;;;5.60;;
4806;SDS011;2417;52.482;13.432;2023-08-17T14:26:41;8.53;;;5.23;;
4806;SDS011;2417;52.482;13.432;2023-08-17T14:29:10;7.47;;;5.37;;
4806;SDS011;2417;52.482;13.432;2023-08-17T14:31:38;8.57;;;5.70;;
4806;SDS011;2417;52.482;13.432;2023-08-17T14:34:06;7.93;;;5.33;;
4806;SDS011;2417;52.482;13.432;2023-08-17T14:36:34;6.30;;;4.57;;
4806;SDS011;2417;52.482;13.432;2023-08-17T14:39:02;10.00;;;6.20;;
4806;SDS011;2417;52.482;13.432;2023-08-17T14:41:30;8.80;;;5.67;;
4806;SDS011;2417;52.482;13.432;2023-08-17T14:43:59;9.83;;;5.80;;
4806;SDS011;2417;52.482;13.432;2023-08-17T14:46:30;11.23;;;5.33;;
4806;SDS011;2417;52.482;13.432;2023-08-17T14:48:58;10.10;;;4.80;;
4806;SDS011;2417;52.482;13.432;2023-08-17T14:51:28;7.03;;;5.50;;
4806;SDS011;2417;52.482;13.432;2023-08-17T14:53:57;10.97;;;7.60;;
4806;SDS011;2417;52.482;13.432;2023-08-17T14:56:25;16.80;;;5.47;;
4806;SDS011;2417;52.482;13.432;2023-08-17T14:58:54;9.10;;;7.03;;
4806;SDS011;2417;52.482;13.432;2023-08-17T15:01:22;20.67;;;13.57;;
4806;SDS011;2417;52.482;13.432;2023-08-17T15:03:51;8.93;;;5.60;;
4806;SDS011;2417;52.482;13.432;2023-08-17T15:06:19;7.53;;;5.00;;